sensor_id;sensor_type;location;lat;lon;timestamp;P1;durP1;ratioP1;P2;durP2;ratioP2
9541;SDS011;4809;48.224;8.572;2024-02-21T00:00:04;8.97;;;5.07;;
9541;SDS011;4809;48.224;8.572;2024-02-21T00:02:30;9.07;;;4.60;;
9541;SDS011;4809;48.224;8.572;2024-02-21T00:04:55;7.23;;;4.37;;
9541;SDS011;4809;48.224;8.572;2024-02-21T00:07:20;10.17;;;4.90;;
9541;SDS011;4809;48.224;8.572;2024-02-21T00:09:46;10.27;;;4.80;;
9541;SDS011;4809;48.224;8.572;2024-02-21T00:12:11;8.57;;;4.37;;
9541;SDS011;4809;48.224;8.572;2024-02-21T00:14:38;8.03;;;4.70;;
9541;SDS011;4809;48.224;8.572;2024-02-21T00:17:04;8.80;;;4.63;;
9541;SDS011;4809;48.224;8.572;2024-02-21T00:19:30;9.37;;;4.57;;
9541;SDS011;4809;48.224;8.572;2024-02-21T00:21:55;6.97;;;4.60;;
9541;SDS011;4809;48.224;8.572;2024-02-21T00:24:20;9.87;;;4.53;;
9541;SDS011;4809;48.224;8.572;2024-02-21T00:26:46;8.00;;;4.20;;
9541;SDS011;4809;48.224;8.572;2024-02-21T00:29:11;7.83;;;3.70;;
9541;SDS011;4809;48.224;8.572;2024-02-21T00:31:36;7.80;;;4.10;;
9541;SDS011;4809;48.224;8.572;2024-02-21T00:34:02;8.83;;;4.33;;
9541;SDS011;4809;48.224;8.572;2024-02-21T00:36:27;10.83;;;4.63;;
9541;SDS011;4809;48.224;8.572;2024-02-21T00:38:52;8.57;;;4.37;;
9541;SDS011;4809;48.224;8.572;2024-02-21T00:41:18;8.00;;;4.33;;
9541;SDS011;4809;48.224;8.572;2024-02-21T00:43:44;11.07;;;4.30;;
9541;SDS011;4809;48.224;8.572;2024-02-21T00:46:10;7.00;;;4.17;;
9541;SDS011;4809;48.224;8.572;2024-02-21T00:48:35;10.17;;;4.40;;
9541;SDS011;4809;48.224;8.572;2024-02-21T00:51:00;6.50;;;3.97;;
9541;SDS011;4809;48.224;8.572;2024-02-21T00:53:26;7.90;;;4.00;;
9541;SDS011;4809;48.224;8.572;2024-02-21T00:55:51;8.90;;;3.97;;
9541;SDS011;4809;48.224;8.572;2024-02-21T00:58:16;8.47;;;4.00;;
9541;SDS011;4809;48.224;8.572;2024-02-21T01:00:42;6.60;;;4.10;;
9541;SDS011;4809;48.224;8.572;2024-02-21T01:03:07;8.17;;;4.23;;
9541;SDS011;4809;48.224;8.572;2024-02-21T01:05:33;8.43;;;3.80;;
9541;SDS011;4809;48.224;8.572;2024-02-21T01:07:58;6.50;;;4.10;;
9541;SDS011;4809;48.224;8.572;2024-02-21T01:10:24;8.27;;;4.50;;
9541;SDS011;4809;48.224;8.572;2024-02-21T01:12:49;9.17;;;4.43;;
9541;SDS011;4809;48.224;8.572;2024-02-21T01:15:14;10.03;;;4.50;;
9541;SDS011;4809;48.224;8.572;2024-02-21T01:17:40;10.10;;;4.67;;
9541;SDS011;4809;48.224;8.572;2024-02-21T01:20:08;9.40;;;3.90;;
9541;SDS011;4809;48.224;8.572;2024-02-21T01:22:36;8.20;;;4.40;;
9541;SDS011;4809;48.224;8.572;2024-02-21T01:25:02;8.23;;;4.03;;
9541;SDS011;4809;48.224;8.572;2024-02-21T01:27:27;9.00;;;4.17;;
9541;SDS011;4809;48.224;8.572;2024-02-21T01:29:52;8.27;;;4.43;;
9541;SDS011;4809;48.224;8.572;2024-02-21T01:32:18;9.63;;;4.40;;
9541;SDS011;4809;48.224;8.572;2024-02-21T01:34:43;7.10;;;4.27;;
9541;SDS011;4809;48.224;8.572;2024-02-21T01:37:08;6.57;;;3.77;;
9541;SDS011;4809;48.224;8.572;2024-02-21T01:39:34;9.17;;;4.07;;
9541;SDS011;4809;48.224;8.572;2024-02-21T01:41:59;7.10;;;4.10;;
9541;SDS011;4809;48.224;8.572;2024-02-21T01:44:25;8.17;;;4.23;;
9541;SDS011;4809;48.224;8.572;2024-02-21T01:46:50;7.03;;;4.00;;
9541;SDS011;4809;48.224;8.572;2024-02-21T01:49:17;8.30;;;4.10;;
9541;SDS011;4809;48.224;8.572;2024-02-21T01:51:43;8.57;;;4.40;;
9541;SDS011;4809;48.224;8.572;2024-02-21T01:54:09;8.07;;;3.97;;
9541;SDS011;4809;48.224;8.572;2024-02-21T01:56:36;7.70;;;4.20;;
9541;SDS011;4809;48.224;8.572;2024-02-21T01:59:02;6.80;;;4.20;;
9541;SDS011;4809;48.224;8.572;2024-02-21T02:01:27;8.23;;;4.10;;
9541;SDS011;4809;48.224;8.572;2024-02-21T02:03:53;9.67;;;4.17;;
9541;SDS011;4809;48.224;8.572;2024-02-21T02:06:18;6.70;;;4.10;;
9541;SDS011;4809;48.224;8.572;2024-02-21T02:08:44;6.33;;;3.73;;
9541;SDS011;4809;48.224;8.572;2024-02-21T02:11:09;6.63;;;3.60;;
9541;SDS011;4809;48.224;8.572;2024-02-21T02:13:36;8.03;;;4.07;;
9541;SDS011;4809;48.224;8.572;2024-02-21T02:16:01;7.90;;;4.20;;
9541;SDS011;4809;48.224;8.572;2024-02-21T02:18:27;7.13;;;3.60;;
9541;SDS011;4809;48.224;8.572;2024-02-21T02:20:52;7.37;;;3.60;;
9541;SDS011;4809;48.224;8.572;2024-02-21T02:23:51;7.10;;;3.40;;
9541;SDS011;4809;48.224;8.572;2024-02-21T02:26:09;7.33;;;3.90;;
9541;SDS011;4809;48.224;8.572;2024-02-21T02:28:35;6.23;;;3.60;;
9541;SDS011;4809;48.224;8.572;2024-02-21T02:31:00;9.23;;;3.67;;
9541;SDS011;4809;48.224;8.572;2024-02-21T02:33:26;6.67;;;3.57;;
9541;SDS011;4809;48.224;8.572;2024-02-21T02:35:51;7.97;;;3.43;;
9541;SDS011;4809;48.224;8.572;2024-02-21T02:38:16;7.93;;;3.53;;
9541;SDS011;4809;48.224;8.572;2024-02-21T02:40:42;7.67;;;3.63;;
9541;SDS011;4809;48.224;8.572;2024-02-21T02:43:07;6.93;;;3.17;;
9541;SDS011;4809;48.224;8.572;2024-02-21T02:45:33;7.07;;;3.20;;
9541;SDS011;4809;48.224;8.572;2024-02-21T02:47:58;8.40;;;3.40;;
9541;SDS011;4809;48.224;8.572;2024-02-21T02:50:24;5.17;;;2.93;;
9541;SDS011;4809;48.224;8.572;2024-02-21T02:52:50;6.60;;;3.47;;
9541;SDS011;4809;48.224;8.572;2024-02-21T02:55:16;7.73;;;3.57;;
9541;SDS011;4809;48.224;8.572;2024-02-21T02:57:41;6.57;;;3.20;;
9541;SDS011;4809;48.224;8.572;2024-02-21T03:00:07;7.10;;;3.00;;
9541;SDS011;4809;48.224;8.572;2024-02-21T03:02:34;5.87;;;3.00;;
9541;SDS011;4809;48.224;8.572;2024-02-21T03:05:01;6.10;;;3.00;;
9541;SDS011;4809;48.224;8.572;2024-02-21T03:07:37;4.97;;;2.70;;
9541;SDS011;4809;48.224;8.572;2024-02-21T03:10:02;6.47;;;3.13;;
9541;SDS011;4809;48.224;8.572;2024-02-21T03:12:28;7.07;;;3.10;;
9541;SDS011;4809;48.224;8.572;2024-02-21T03:14:54;6.10;;;3.00;;
9541;SDS011;4809;48.224;8.572;2024-02-21T03:17:19;7.57;;;3.47;;
9541;SDS011;4809;48.224;8.572;2024-02-21T03:19:45;5.70;;;3.30;;
9541;SDS011;4809;48.224;8.572;2024-02-21T03:22:10;8.77;;;3.73;;
9541;SDS011;4809;48.224;8.572;2024-02-21T03:24:35;7.53;;;3.83;;
9541;SDS011;4809;48.224;8.572;2024-02-21T03:27:01;6.27;;;3.47;;
9541;SDS011;4809;48.224;8.572;2024-02-21T03:29:27;7.80;;;3.90;;
9541;SDS011;4809;48.224;8.572;2024-02-21T03:31:52;6.73;;;3.77;;
9541;SDS011;4809;48.224;8.572;2024-02-21T03:34:17;5.93;;;3.70;;
9541;SDS011;4809;48.224;8.572;2024-02-21T03:36:45;5.73;;;3.40;;
9541;SDS011;4809;48.224;8.572;2024-02-21T03:39:11;6.10;;;3.50;;
9541;SDS011;4809;48.224;8.572;2024-02-21T03:41:36;7.43;;;3.70;;
9541;SDS011;4809;48.224;8.572;2024-02-21T03:44:02;6.77;;;3.40;;
9541;SDS011;4809;48.224;8.572;2024-02-21T03:46:27;6.73;;;3.80;;
9541;SDS011;4809;48.224;8.572;2024-02-21T03:48:52;7.33;;;3.70;;
9541;SDS011;4809;48.224;8.572;2024-02-21T03:51:18;7.40;;;3.43;;
9541;SDS011;4809;48.224;8.572;2024-02-21T03:53:43;6.33;;;3.70;;
9541;SDS011;4809;48.224;8.572;2024-02-21T03:56:09;7.43;;;3.43;;
9541;SDS011;4809;48.224;8.572;2024-02-21T03:58:34;7.67;;;3.30;;
9541;SDS011;4809;48.224;8.572;2024-02-21T04:01:00;7.83;;;3.53;;
9541;SDS011;4809;48.224;8.572;2024-02-21T04:03:26;6.97;;;3.47;;
9541;SDS011;4809;48.224;8.572;2024-02-21T04:05:51;7.33;;;3.40;;
9541;SDS011;4809;48.224;8.572;2024-02-21T04:08:17;8.47;;;3.80;;
9541;SDS011;4809;48.224;8.572;2024-02-21T04:10:42;6.77;;;3.70;;
9541;SDS011;4809;48.224;8.572;2024-02-21T04:13:09;5.17;;;3.20;;
9541;SDS011;4809;48.224;8.572;2024-02-21T04:15:34;7.00;;;3.63;;
9541;SDS011;4809;48.224;8.572;2024-02-21T04:18:00;8.40;;;3.43;;
9541;SDS011;4809;48.224;8.572;2024-02-21T04:20:25;5.00;;;3.10;;
9541;SDS011;4809;48.224;8.572;2024-02-21T04:22:51;5.50;;;3.13;;
9541;SDS011;4809;48.224;8.572;2024-02-21T04:25:16;6.77;;;3.20;;
9541;SDS011;4809;48.224;8.572;2024-02-21T04:27:41;3.90;;;2.67;;
9541;SDS011;4809;48.224;8.572;2024-02-21T04:30:07;7.13;;;3.10;;
9541;SDS011;4809;48.224;8.572;2024-02-21T04:32:33;7.23;;;3.30;;
9541;SDS011;4809;48.224;8.572;2024-02-21T04:34:58;7.87;;;3.40;;
9541;SDS011;4809;48.224;8.572;2024-02-21T04:37:24;7.10;;;3.13;;
9541;SDS011;4809;48.224;8.572;2024-02-21T04:39:50;5.00;;;2.97;;
9541;SDS011;4809;48.224;8.572;2024-02-21T04:42:16;7.13;;;3.00;;
9541;SDS011;4809;48.224;8.572;2024-02-21T04:44:41;4.90;;;2.60;;
9541;SDS011;4809;48.224;8.572;2024-02-21T04:47:07;5.33;;;2.90;;
9541;SDS011;4809;48.224;8.572;2024-02-21T04:49:32;6.70;;;3.00;;
9541;SDS011;4809;48.224;8.572;2024-02-21T04:51:58;4.20;;;2.50;;
9541;SDS011;4809;48.224;8.572;2024-02-21T04:54:23;7.57;;;2.70;;
9541;SDS011;4809;48.224;8.572;2024-02-21T04:56:48;5.37;;;2.80;;
9541;SDS011;4809;48.224;8.572;2024-02-21T04:59:14;8.17;;;3.03;;
9541;SDS011;4809;48.224;8.572;2024-02-21T05:01:40;5.23;;;2.77;;
9541;SDS011;4809;48.224;8.572;2024-02-21T05:04:05;5.47;;;2.87;;
9541;SDS011;4809;48.224;8.572;2024-02-21T05:06:31;7.13;;;3.10;;
9541;SDS011;4809;48.224;8.572;2024-02-21T05:08:56;6.23;;;3.10;;
9541;SDS011;4809;48.224;8.572;2024-02-21T05:11:22;8.90;;;3.63;;
9541;SDS011;4809;48.224;8.572;2024-02-21T05:13:48;7.03;;;3.27;;
9541;SDS011;4809;48.224;8.572;2024-02-21T05:16:13;8.70;;;3.60;;
9541;SDS011;4809;48.224;8.572;2024-02-21T05:18:40;6.97;;;3.50;;
9541;SDS011;4809;48.224;8.572;2024-02-21T05:21:05;5.93;;;3.43;;
9541;SDS011;4809;48.224;8.572;2024-02-21T05:23:31;8.00;;;3.40;;
9541;SDS011;4809;48.224;8.572;2024-02-21T05:25:56;9.60;;;3.30;;
9541;SDS011;4809;48.224;8.572;2024-02-21T05:28:21;8.37;;;3.33;;
9541;SDS011;4809;48.224;8.572;2024-02-21T05:30:47;6.43;;;3.60;;
9541;SDS011;4809;48.224;8.572;2024-02-21T05:33:12;8.07;;;3.10;;
9541;SDS011;4809;48.224;8.572;2024-02-21T05:35:37;8.20;;;3.20;;
9541;SDS011;4809;48.224;8.572;2024-02-21T05:38:03;6.90;;;3.20;;
9541;SDS011;4809;48.224;8.572;2024-02-21T05:40:31;8.20;;;3.47;;
9541;SDS011;4809;48.224;8.572;2024-02-21T05:42:57;5.30;;;3.63;;
9541;SDS011;4809;48.224;8.572;2024-02-21T05:45:22;10.07;;;3.87;;
9541;SDS011;4809;48.224;8.572;2024-02-21T05:47:48;8.93;;;3.70;;
9541;SDS011;4809;48.224;8.572;2024-02-21T05:50:13;7.00;;;3.60;;
9541;SDS011;4809;48.224;8.572;2024-02-21T05:52:39;8.53;;;3.40;;
9541;SDS011;4809;48.224;8.572;2024-02-21T05:55:06;7.23;;;3.20;;
9541;SDS011;4809;48.224;8.572;2024-02-21T05:57:31;6.93;;;3.50;;
9541;SDS011;4809;48.224;8.572;2024-02-21T05:59:57;8.07;;;3.70;;
9541;SDS011;4809;48.224;8.572;2024-02-21T06:02:22;6.87;;;3.80;;
9541;SDS011;4809;48.224;8.572;2024-02-21T06:04:47;7.03;;;3.47;;
9541;SDS011;4809;48.224;8.572;2024-02-21T06:07:13;6.57;;;3.50;;
9541;SDS011;4809;48.224;8.572;2024-02-21T06:09:38;8.63;;;3.60;;
9541;SDS011;4809;48.224;8.572;2024-02-21T06:12:03;5.73;;;3.33;;
9541;SDS011;4809;48.224;8.572;2024-02-21T06:14:29;7.77;;;3.80;;
9541;SDS011;4809;48.224;8.572;2024-02-21T06:16:54;8.10;;;3.53;;
9541;SDS011;4809;48.224;8.572;2024-02-21T06:19:20;7.83;;;3.67;;
9541;SDS011;4809;48.224;8.572;2024-02-21T06:21:45;6.60;;;3.73;;
9541;SDS011;4809;48.224;8.572;2024-02-21T06:24:10;6.53;;;3.80;;
9541;SDS011;4809;48.224;8.572;2024-02-21T06:26:37;7.60;;;3.70;;
9541;SDS011;4809;48.224;8.572;2024-02-21T06:29:02;5.90;;;3.50;;
9541;SDS011;4809;48.224;8.572;2024-02-21T06:31:28;6.87;;;4.10;;
9541;SDS011;4809;48.224;8.572;2024-02-21T06:33:54;8.47;;;4.03;;
9541;SDS011;4809;48.224;8.572;2024-02-21T06:36:19;8.87;;;3.73;;
9541;SDS011;4809;48.224;8.572;2024-02-21T06:38:44;8.53;;;3.87;;
9541;SDS011;4809;48.224;8.572;2024-02-21T06:41:16;9.17;;;3.97;;
9541;SDS011;4809;48.224;8.572;2024-02-21T06:43:44;5.70;;;3.60;;
9541;SDS011;4809;48.224;8.572;2024-02-21T06:46:10;8.70;;;4.00;;
9541;SDS011;4809;48.224;8.572;2024-02-21T06:48:36;7.93;;;3.87;;
9541;SDS011;4809;48.224;8.572;2024-02-21T06:51:01;8.20;;;4.20;;
9541;SDS011;4809;48.224;8.572;2024-02-21T06:53:28;6.50;;;3.60;;
9541;SDS011;4809;48.224;8.572;2024-02-21T06:55:53;7.77;;;3.80;;
9541;SDS011;4809;48.224;8.572;2024-02-21T06:58:19;9.80;;;4.40;;
9541;SDS011;4809;48.224;8.572;2024-02-21T07:00:44;8.70;;;4.20;;
9541;SDS011;4809;48.224;8.572;2024-02-21T07:03:09;7.83;;;4.07;;
9541;SDS011;4809;48.224;8.572;2024-02-21T07:05:35;7.40;;;4.00;;
9541;SDS011;4809;48.224;8.572;2024-02-21T07:08:00;7.33;;;3.80;;
9541;SDS011;4809;48.224;8.572;2024-02-21T07:10:26;8.53;;;4.37;;
9541;SDS011;4809;48.224;8.572;2024-02-21T07:12:53;7.60;;;3.90;;
9541;SDS011;4809;48.224;8.572;2024-02-21T07:15:18;8.27;;;3.93;;
9541;SDS011;4809;48.224;8.572;2024-02-21T07:17:45;9.67;;;4.67;;
9541;SDS011;4809;48.224;8.572;2024-02-21T07:20:10;7.47;;;4.00;;
9541;SDS011;4809;48.224;8.572;2024-02-21T07:22:35;8.80;;;4.50;;
9541;SDS011;4809;48.224;8.572;2024-02-21T07:25:01;8.43;;;4.38;;
9541;SDS011;4809;48.224;8.572;2024-02-21T07:27:26;6.80;;;3.97;;
9541;SDS011;4809;48.224;8.572;2024-02-21T07:29:56;7.35;;;3.70;;
9541;SDS011;4809;48.224;8.572;2024-02-21T07:32:21;7.85;;;3.58;;
9541;SDS011;4809;48.224;8.572;2024-02-21T07:34:48;5.93;;;3.83;;
9541;SDS011;4809;48.224;8.572;2024-02-21T07:37:13;7.10;;;3.88;;
9541;SDS011;4809;48.224;8.572;2024-02-21T07:39:39;5.13;;;3.17;;
9541;SDS011;4809;48.224;8.572;2024-02-21T07:42:04;6.57;;;3.55;;
9541;SDS011;4809;48.224;8.572;2024-02-21T07:44:29;7.87;;;3.83;;
9541;SDS011;4809;48.224;8.572;2024-02-21T07:46:56;7.13;;;3.92;;
9541;SDS011;4809;48.224;8.572;2024-02-21T07:49:22;5.55;;;3.33;;
9541;SDS011;4809;48.224;8.572;2024-02-21T07:51:47;7.43;;;3.70;;
9541;SDS011;4809;48.224;8.572;2024-02-21T07:54:13;7.97;;;3.78;;
9541;SDS011;4809;48.224;8.572;2024-02-21T07:56:38;9.25;;;4.05;;
9541;SDS011;4809;48.224;8.572;2024-02-21T07:59:03;9.30;;;3.50;;
9541;SDS011;4809;48.224;8.572;2024-02-21T08:01:30;6.78;;;3.50;;
9541;SDS011;4809;48.224;8.572;2024-02-21T08:03:56;8.45;;;3.72;;
9541;SDS011;4809;48.224;8.572;2024-02-21T08:06:21;8.68;;;3.80;;
9541;SDS011;4809;48.224;8.572;2024-02-21T08:08:47;8.43;;;3.78;;
9541;SDS011;4809;48.224;8.572;2024-02-21T08:11:12;8.02;;;3.78;;
9541;SDS011;4809;48.224;8.572;2024-02-21T08:13:38;7.20;;;3.60;;
9541;SDS011;4809;48.224;8.572;2024-02-21T08:16:05;7.57;;;3.70;;
9541;SDS011;4809;48.224;8.572;2024-02-21T08:18:30;8.57;;;3.85;;
9541;SDS011;4809;48.224;8.572;2024-02-21T08:20:55;6.68;;;3.22;;
9541;SDS011;4809;48.224;8.572;2024-02-21T08:23:22;5.95;;;3.38;;
9541;SDS011;4809;48.224;8.572;2024-02-21T08:25:48;9.05;;;3.40;;
9541;SDS011;4809;48.224;8.572;2024-02-21T08:28:14;7.28;;;3.53;;
9541;SDS011;4809;48.224;8.572;2024-02-21T08:30:41;5.88;;;3.45;;
9541;SDS011;4809;48.224;8.572;2024-02-21T08:33:12;5.57;;;3.25;;
9541;SDS011;4809;48.224;8.572;2024-02-21T08:35:38;6.10;;;3.13;;
9541;SDS011;4809;48.224;8.572;2024-02-21T08:38:03;7.20;;;3.47;;
9541;SDS011;4809;48.224;8.572;2024-02-21T08:40:28;7.88;;;3.78;;
9541;SDS011;4809;48.224;8.572;2024-02-21T08:42:54;5.65;;;3.40;;
9541;SDS011;4809;48.224;8.572;2024-02-21T08:45:19;7.50;;;3.70;;
9541;SDS011;4809;48.224;8.572;2024-02-21T08:47:44;9.25;;;3.63;;
9541;SDS011;4809;48.224;8.572;2024-02-21T08:50:10;6.35;;;3.58;;
9541;SDS011;4809;48.224;8.572;2024-02-21T08:52:36;7.03;;;3.25;;
9541;SDS011;4809;48.224;8.572;2024-02-21T08:55:01;5.03;;;3.08;;
9541;SDS011;4809;48.224;8.572;2024-02-21T08:57:27;6.60;;;3.42;;
9541;SDS011;4809;48.224;8.572;2024-02-21T08:59:53;7.38;;;3.33;;
9541;SDS011;4809;48.224;8.572;2024-02-21T09:02:18;5.57;;;3.10;;
9541;SDS011;4809;48.224;8.572;2024-02-21T09:04:43;6.18;;;2.95;;
9541;SDS011;4809;48.224;8.572;2024-02-21T09:07:09;7.15;;;3.50;;
9541;SDS011;4809;48.224;8.572;2024-02-21T09:09:35;8.23;;;3.47;;
9541;SDS011;4809;48.224;8.572;2024-02-21T09:12:00;7.25;;;3.13;;
9541;SDS011;4809;48.224;8.572;2024-02-21T09:14:31;6.68;;;3.38;;
9541;SDS011;4809;48.224;8.572;2024-02-21T09:16:57;6.30;;;2.97;;
9541;SDS011;4809;48.224;8.572;2024-02-21T09:19:22;6.85;;;3.22;;
9541;SDS011;4809;48.224;8.572;2024-02-21T09:21:47;8.77;;;3.78;;
9541;SDS011;4809;48.224;8.572;2024-02-21T09:24:12;6.60;;;3.15;;
9541;SDS011;4809;48.224;8.572;2024-02-21T09:26:38;5.88;;;3.60;;
9541;SDS011;4809;48.224;8.572;2024-02-21T09:29:04;4.97;;;3.13;;
9541;SDS011;4809;48.224;8.572;2024-02-21T09:31:29;6.40;;;3.63;;
9541;SDS011;4809;48.224;8.572;2024-02-21T09:33:54;6.72;;;3.28;;
9541;SDS011;4809;48.224;8.572;2024-02-21T09:36:20;5.45;;;3.20;;
9541;SDS011;4809;48.224;8.572;2024-02-21T09:38:46;5.60;;;3.13;;
9541;SDS011;4809;48.224;8.572;2024-02-21T09:43:43;6.68;;;3.20;;
9541;SDS011;4809;48.224;8.572;2024-02-21T09:46:17;5.45;;;3.20;;
9541;SDS011;4809;48.224;8.572;2024-02-21T09:51:41;5.43;;;3.38;;
9541;SDS011;4809;48.224;8.572;2024-02-21T09:54:07;5.75;;;3.45;;
9541;SDS011;4809;48.224;8.572;2024-02-21T09:56:32;6.70;;;3.22;;
9541;SDS011;4809;48.224;8.572;2024-02-21T09:58:58;5.45;;;3.25;;
9541;SDS011;4809;48.224;8.572;2024-02-21T10:01:23;7.57;;;3.33;;
9541;SDS011;4809;48.224;8.572;2024-02-21T10:03:50;7.30;;;3.55;;
9541;SDS011;4809;48.224;8.572;2024-02-21T10:06:16;8.15;;;3.28;;
9541;SDS011;4809;48.224;8.572;2024-02-21T10:08:41;5.18;;;3.00;;
9541;SDS011;4809;48.224;8.572;2024-02-21T10:11:07;5.00;;;3.00;;
9541;SDS011;4809;48.224;8.572;2024-02-21T10:13:34;4.53;;;2.90;;
9541;SDS011;4809;48.224;8.572;2024-02-21T10:16:00;4.68;;;2.65;;
9541;SDS011;4809;48.224;8.572;2024-02-21T10:18:29;3.47;;;2.60;;
9541;SDS011;4809;48.224;8.572;2024-02-21T10:21:04;4.20;;;2.70;;
9541;SDS011;4809;48.224;8.572;2024-02-21T10:23:42;4.13;;;2.55;;
9541;SDS011;4809;48.224;8.572;2024-02-21T10:26:11;4.00;;;2.50;;
9541;SDS011;4809;48.224;8.572;2024-02-21T10:28:40;4.25;;;2.50;;
9541;SDS011;4809;48.224;8.572;2024-02-21T10:31:07;4.05;;;2.55;;
9541;SDS011;4809;48.224;8.572;2024-02-21T10:33:36;5.18;;;2.63;;
9541;SDS011;4809;48.224;8.572;2024-02-21T10:36:09;4.93;;;2.60;;
9541;SDS011;4809;48.224;8.572;2024-02-21T10:38:38;5.00;;;2.30;;
9541;SDS011;4809;48.224;8.572;2024-02-21T10:41:05;3.90;;;2.47;;
9541;SDS011;4809;48.224;8.572;2024-02-21T10:43:33;3.10;;;2.40;;
9541;SDS011;4809;48.224;8.572;2024-02-21T10:46:04;2.90;;;2.40;;
9541;SDS011;4809;48.224;8.572;2024-02-21T10:48:33;2.10;;;1.80;;
9541;SDS011;4809;48.224;8.572;2024-02-21T10:51:05;2.65;;;2.05;;
9541;SDS011;4809;48.224;8.572;2024-02-21T10:53:44;3.38;;;1.90;;
9541;SDS011;4809;48.224;8.572;2024-02-21T10:59:00;2.30;;;2.10;;
9541;SDS011;4809;48.224;8.572;2024-02-21T11:01:27;2.90;;;2.10;;
9541;SDS011;4809;48.224;8.572;2024-02-21T11:03:57;2.83;;;2.10;;
9541;SDS011;4809;48.224;8.572;2024-02-21T11:06:23;4.65;;;2.13;;
9541;SDS011;4809;48.224;8.572;2024-02-21T11:09:02;3.63;;;1.90;;
9541;SDS011;4809;48.224;8.572;2024-02-21T11:11:29;4.97;;;2.42;;
9541;SDS011;4809;48.224;8.572;2024-02-21T11:14:07;3.53;;;2.28;;
9541;SDS011;4809;48.224;8.572;2024-02-21T11:16:40;4.95;;;2.15;;
9541;SDS011;4809;48.224;8.572;2024-02-21T11:21:47;2.72;;;2.30;;
9541;SDS011;4809;48.224;8.572;2024-02-21T11:24:27;3.60;;;2.15;;
9541;SDS011;4809;48.224;8.572;2024-02-21T11:27:11;4.20;;;2.20;;
9541;SDS011;4809;48.224;8.572;2024-02-21T11:29:44;3.08;;;2.10;;
9541;SDS011;4809;48.224;8.572;2024-02-21T11:32:11;3.35;;;2.20;;
9541;SDS011;4809;48.224;8.572;2024-02-21T11:34:39;4.18;;;2.17;;
9541;SDS011;4809;48.224;8.572;2024-02-21T11:37:13;3.03;;;2.30;;
9541;SDS011;4809;48.224;8.572;2024-02-21T11:39:41;3.35;;;2.35;;
9541;SDS011;4809;48.224;8.572;2024-02-21T11:42:07;3.00;;;2.40;;
9541;SDS011;4809;48.224;8.572;2024-02-21T11:44:37;5.03;;;2.40;;
9541;SDS011;4809;48.224;8.572;2024-02-21T11:47:07;3.72;;;2.42;;
9541;SDS011;4809;48.224;8.572;2024-02-21T11:49:36;6.32;;;2.42;;
9541;SDS011;4809;48.224;8.572;2024-02-21T11:52:03;4.53;;;2.17;;
9541;SDS011;4809;48.224;8.572;2024-02-21T11:54:32;2.72;;;2.20;;
9541;SDS011;4809;48.224;8.572;2024-02-21T11:56:58;4.03;;;1.88;;
9541;SDS011;4809;48.224;8.572;2024-02-21T11:59:24;3.67;;;2.20;;
9541;SDS011;4809;48.224;8.572;2024-02-21T12:01:49;3.15;;;2.30;;
9541;SDS011;4809;48.224;8.572;2024-02-21T12:04:16;3.30;;;2.13;;
9541;SDS011;4809;48.224;8.572;2024-02-21T12:06:44;4.18;;;2.22;;
9541;SDS011;4809;48.224;8.572;2024-02-21T12:09:13;3.28;;;2.45;;
9541;SDS011;4809;48.224;8.572;2024-02-21T12:11:39;3.15;;;2.13;;
9541;SDS011;4809;48.224;8.572;2024-02-21T12:14:05;4.25;;;2.25;;
9541;SDS011;4809;48.224;8.572;2024-02-21T12:16:31;2.88;;;2.00;;
9541;SDS011;4809;48.224;8.572;2024-02-21T12:18:57;3.10;;;2.20;;
9541;SDS011;4809;48.224;8.572;2024-02-21T12:21:24;4.35;;;2.42;;
9541;SDS011;4809;48.224;8.572;2024-02-21T12:23:55;2.50;;;2.25;;
9541;SDS011;4809;48.224;8.572;2024-02-21T12:26:20;3.55;;;2.28;;
9541;SDS011;4809;48.224;8.572;2024-02-21T12:28:46;4.07;;;2.45;;
9541;SDS011;4809;48.224;8.572;2024-02-21T12:31:12;4.70;;;2.40;;
9541;SDS011;4809;48.224;8.572;2024-02-21T12:33:37;3.30;;;2.17;;
9541;SDS011;4809;48.224;8.572;2024-02-21T12:36:03;3.58;;;2.28;;
9541;SDS011;4809;48.224;8.572;2024-02-21T12:38:29;4.03;;;2.30;;
9541;SDS011;4809;48.224;8.572;2024-02-21T12:40:54;4.88;;;2.53;;
9541;SDS011;4809;48.224;8.572;2024-02-21T12:43:20;3.17;;;2.25;;
9541;SDS011;4809;48.224;8.572;2024-02-21T12:45:45;3.03;;;2.20;;
9541;SDS011;4809;48.224;8.572;2024-02-21T12:48:10;3.55;;;2.40;;
9541;SDS011;4809;48.224;8.572;2024-02-21T12:50:37;3.28;;;2.30;;
9541;SDS011;4809;48.224;8.572;2024-02-21T12:53:02;3.83;;;2.40;;
9541;SDS011;4809;48.224;8.572;2024-02-21T12:55:28;4.28;;;2.20;;
9541;SDS011;4809;48.224;8.572;2024-02-21T12:57:54;2.65;;;2.08;;
9541;SDS011;4809;48.224;8.572;2024-02-21T13:00:19;3.80;;;2.50;;
9541;SDS011;4809;48.224;8.572;2024-02-21T13:02:46;4.60;;;2.25;;
9541;SDS011;4809;48.224;8.572;2024-02-21T13:05:11;3.88;;;2.38;;
9541;SDS011;4809;48.224;8.572;2024-02-21T13:07:37;4.70;;;2.50;;
9541;SDS011;4809;48.224;8.572;2024-02-21T13:10:02;3.90;;;2.55;;
9541;SDS011;4809;48.224;8.572;2024-02-21T13:12:28;4.72;;;2.40;;
9541;SDS011;4809;48.224;8.572;2024-02-21T13:14:55;3.28;;;2.60;;
9541;SDS011;4809;48.224;8.572;2024-02-21T13:17:20;4.78;;;2.60;;
9541;SDS011;4809;48.224;8.572;2024-02-21T13:19:47;3.58;;;2.60;;
9541;SDS011;4809;48.224;8.572;2024-02-21T13:22:12;4.35;;;2.97;;
9541;SDS011;4809;48.224;8.572;2024-02-21T13:24:38;5.15;;;2.67;;
9541;SDS011;4809;48.224;8.572;2024-02-21T13:27:03;4.72;;;2.65;;
9541;SDS011;4809;48.224;8.572;2024-02-21T13:29:29;7.20;;;2.72;;
9541;SDS011;4809;48.224;8.572;2024-02-21T13:31:54;3.53;;;2.60;;
9541;SDS011;4809;48.224;8.572;2024-02-21T13:34:19;3.30;;;2.50;;
9541;SDS011;4809;48.224;8.572;2024-02-21T13:36:45;3.90;;;2.70;;
9541;SDS011;4809;48.224;8.572;2024-02-21T13:39:10;3.70;;;3.03;;
9541;SDS011;4809;48.224;8.572;2024-02-21T13:41:40;3.67;;;2.70;;
9541;SDS011;4809;48.224;8.572;2024-02-21T13:44:07;5.63;;;3.00;;
9541;SDS011;4809;48.224;8.572;2024-02-21T13:46:34;4.18;;;2.70;;
9541;SDS011;4809;48.224;8.572;2024-02-21T13:49:04;6.13;;;2.70;;
9541;SDS011;4809;48.224;8.572;2024-02-21T13:51:33;3.20;;;2.65;;
9541;SDS011;4809;48.224;8.572;2024-02-21T13:54:01;3.75;;;2.75;;
9541;SDS011;4809;48.224;8.572;2024-02-21T13:56:30;3.58;;;2.60;;
9541;SDS011;4809;48.224;8.572;2024-02-21T13:58:55;5.05;;;2.80;;
9541;SDS011;4809;48.224;8.572;2024-02-21T14:01:22;4.00;;;2.92;;
9541;SDS011;4809;48.224;8.572;2024-02-21T14:03:47;4.32;;;2.53;;
9541;SDS011;4809;48.224;8.572;2024-02-21T14:06:13;4.35;;;3.05;;
9541;SDS011;4809;48.224;8.572;2024-02-21T14:08:38;4.07;;;3.05;;
9541;SDS011;4809;48.224;8.572;2024-02-21T14:11:05;4.05;;;2.95;;
9541;SDS011;4809;48.224;8.572;2024-02-21T14:13:31;3.92;;;2.88;;
9541;SDS011;4809;48.224;8.572;2024-02-21T14:15:57;4.85;;;2.80;;
9541;SDS011;4809;48.224;8.572;2024-02-21T14:18:22;3.83;;;2.70;;
9541;SDS011;4809;48.224;8.572;2024-02-21T14:20:47;4.88;;;2.60;;
9541;SDS011;4809;48.224;8.572;2024-02-21T14:23:13;4.88;;;3.30;;
9541;SDS011;4809;48.224;8.572;2024-02-21T14:25:38;3.47;;;2.92;;
9541;SDS011;4809;48.224;8.572;2024-02-21T14:28:04;5.20;;;2.83;;
9541;SDS011;4809;48.224;8.572;2024-02-21T14:30:30;4.30;;;2.83;;
9541;SDS011;4809;48.224;8.572;2024-02-21T14:32:55;4.30;;;3.00;;
9541;SDS011;4809;48.224;8.572;2024-02-21T14:35:21;4.38;;;3.08;;
9541;SDS011;4809;48.224;8.572;2024-02-21T14:37:46;3.38;;;2.65;;
9541;SDS011;4809;48.224;8.572;2024-02-21T14:40:14;5.30;;;3.10;;
9541;SDS011;4809;48.224;8.572;2024-02-21T14:42:39;5.35;;;3.25;;
9541;SDS011;4809;48.224;8.572;2024-02-21T14:45:05;4.95;;;2.97;;
9541;SDS011;4809;48.224;8.572;2024-02-21T14:47:31;4.15;;;3.03;;
9541;SDS011;4809;48.224;8.572;2024-02-21T14:49:57;3.42;;;2.78;;
9541;SDS011;4809;48.224;8.572;2024-02-21T14:52:23;3.08;;;2.78;;
9541;SDS011;4809;48.224;8.572;2024-02-21T14:54:49;5.93;;;3.17;;
9541;SDS011;4809;48.224;8.572;2024-02-21T14:57:17;3.75;;;2.90;;
9541;SDS011;4809;48.224;8.572;2024-02-21T14:59:43;4.63;;;2.75;;
9541;SDS011;4809;48.224;8.572;2024-02-21T15:02:08;5.53;;;3.20;;
9541;SDS011;4809;48.224;8.572;2024-02-21T15:04:35;3.70;;;2.80;;
9541;SDS011;4809;48.224;8.572;2024-02-21T15:07:01;5.15;;;2.60;;
9541;SDS011;4809;48.224;8.572;2024-02-21T15:09:27;4.63;;;2.75;;
9541;SDS011;4809;48.224;8.572;2024-02-21T15:11:53;5.03;;;3.00;;
9541;SDS011;4809;48.224;8.572;2024-02-21T15:14:18;3.88;;;2.70;;
9541;SDS011;4809;48.224;8.572;2024-02-21T15:16:45;3.47;;;2.85;;
9541;SDS011;4809;48.224;8.572;2024-02-21T15:19:10;5.13;;;2.80;;